Time;durP1;ratioP1;P1;durP2;ratioP2;P2;SDS_P1;SDS_P2;PMS_P1;PMS_P2;Temp;Humidity;BMP_temperature;BMP_pressure;BME280_temperature;BME280_humidity;BME280_pressure;Samples;Min_cycle;Max_cycle;Signal;HPM_P1;HPM_P2
2022/05/06 00:00:37;;;;;;;;;;;;;;;21.52;42.87;96019.31;10353010;28;1875;-54
2022/05/06 00:05:37;;;;;;;;;;;;;;;21.54;42.28;96014.53;10336450;28;1943;-57
2022/05/06 00:10:38;;;;;;;;;;;;;;;21.53;42.70;96013.78;10345899;28;1870;-55
2022/05/06 00:15:38;;;;;;;;;;;;;;;21.54;42.56;96017.97;10341535;28;2334;-57
2022/05/06 00:20:39;;;;;;;;;;;;;;;21.57;42.67;96024.56;10338397;28;1893;-54
2022/05/06 00:25:39;;;;;;;;;;;;;;;21.59;42.43;96022.44;10354765;28;1960;-55
2022/05/06 00:30:40;;;;;;;;;;;;;;;21.60;42.18;96019.53;10329496;28;2347;-54
2022/05/06 00:35:41;;;;;;;;;;;;;;;21.60;42.37;96016.88;10357537;28;2093;-55
2022/05/06 00:40:42;;;;;;;;;;;;;;;21.64;42.18;96009.19;10354516;28;1879;-52
2022/05/06 00:45:49;;;;;;;;;;;;;;;21.62;42.12;96004.22;10355717;28;1964;-55
2022/05/06 00:50:51;;;;;;;;;;;;;;;21.63;41.94;96005.00;10350320;28;1917;-53
2022/05/06 00:55:51;;;;;;;;;;;;;;;21.62;41.98;96004.22;10343224;28;1842;-54
2022/05/06 01:00:52;;;;;;;;;;;;;;;21.62;41.97;96000.78;10351865;28;1886;-55
2022/05/06 01:05:52;;;;;;;;;;;;;;;21.62;41.98;95990.22;10333210;28;1942;-53
2022/05/06 01:10:53;;;;;;;;;;;;;;;21.61;42.01;95978.09;10332974;28;2028;-54
2022/05/06 01:16:08;;;;;;;;;;;;;;;21.60;41.91;95968.59;10330593;28;2002;-50
2022/05/06 01:21:10;;;;;;;;;;;;;;;21.59;41.97;95972.31;10335629;28;2340;-51
2022/05/06 01:26:15;;;;;;;;;;;;;;;21.59;41.96;95965.19;10339844;28;1980;-52
2022/05/06 01:31:24;;;;;;;;;;;;;;;21.62;41.48;95958.56;10350959;28;1892;-50
2022/05/06 01:36:25;;;;;;;;;;;;;;;21.58;41.67;95960.97;10317165;28;2417;-55
2022/05/06 01:41:25;;;;;;;;;;;;;;;21.55;42.06;95955.47;10326114;28;2044;-53
2022/05/06 01:46:27;;;;;;;;;;;;;;;21.55;41.83;95955.47;10350260;28;2009;-53
2022/05/06 01:51:27;;;;;;;;;;;;;;;21.54;41.86;95964.44;10332782;28;2091;-55
2022/05/06 01:56:28;;;;;;;;;;;;;;;21.52;41.63;95963.91;10316633;28;1957;-55
2022/05/06 02:01:29;;;;;;;;;;;;;;;21.53;41.88;95973.41;10350325;28;1899;-52
2022/05/06 02:06:30;;;;;;;;;;;;;;;21.54;41.64;95969.69;10332789;28;1945;-51
2022/05/06 02:11:30;;;;;;;;;;;;;;;21.55;41.88;95966.81;10351490;28;1978;-51
2022/05/06 02:16:30;;;;;;;;;;;;;;;21.56;41.70;95965.75;10339934;28;2019;-56
2022/05/06 02:21:31;;;;;;;;;;;;;;;21.60;41.76;95982.59;10361363;28;1935;-53
2022/05/06 02:26:31;;;;;;;;;;;;;;;21.64;41.66;95980.19;10357336;28;1959;-54
2022/05/06 02:36:51;;;;;;;;;;;;;;;21.66;41.45;95976.22;10336246;28;2170;-54
2022/05/06 02:41:51;;;;;;;;;;;;;;;21.67;41.39;95969.09;10360562;28;2019;-52
2022/05/06 02:46:51;;;;;;;;;;;;;;;21.67;41.16;95969.09;10357746;28;1980;-52
2022/05/06 02:51:52;;;;;;;;;;;;;;;21.65;41.48;95972.00;10359482;28;1919;-51
2022/05/06 02:56:56;;;;;;;;;;;;;;;21.68;41.41;95975.94;10340437;28;2093;-52
2022/05/06 03:01:56;;;;;;;;;;;;;;;21.68;41.04;95981.22;10358544;28;1939;-50
2022/05/06 03:06:57;;;;;;;;;;;;;;;21.66;41.15;95967.50;10335976;28;2028;-53
2022/05/06 03:11:58;;;;;;;;;;;;;;;21.65;41.22;95976.50;10338851;28;2159;-53
2022/05/06 03:16:58;;;;;;;;;;;;;;;21.64;41.40;95969.63;10335636;28;2031;-53
2022/05/06 03:21:59;;;;;;;;;;;;;;;21.63;41.19;95978.63;10338308;28;1908;-55
2022/05/06 03:26:59;;;;;;;;;;;;;;;21.63;41.34;95968.88;10352788;28;1911;-51
2022/05/06 03:32:00;;;;;;;;;;;;;;;21.63;41.11;95960.94;10354511;28;1919;-50
2022/05/06 03:37:00;;;;;;;;;;;;;;;21.60;41.19;95958.06;10355523;28;1943;-53
2022/05/06 03:42:01;;;;;;;;;;;;;;;21.61;40.92;95959.66;10352149;28;1927;-50
2022/05/06 03:47:01;;;;;;;;;;;;;;;21.62;40.99;95969.13;10341739;28;1955;-55
2022/05/06 03:52:03;;;;;;;;;;;;;;;21.62;41.16;95969.13;10354232;28;1898;-56
2022/05/06 03:57:05;;;;;;;;;;;;;;;21.62;40.94;95964.63;10338257;28;2022;-54
2022/05/06 04:02:06;;;;;;;;;;;;;;;21.67;40.72;95974.38;10353667;28;1903;-55
2022/05/06 04:07:07;;;;;;;;;;;;;;;21.67;40.94;95984.94;10352895;28;2004;-52
2022/05/06 04:12:09;;;;;;;;;;;;;;;21.67;41.21;95995.47;10352055;28;1899;-53
2022/05/06 04:17:15;;;;;;;;;;;;;;;21.68;40.72;95997.03;10332860;28;1812;-56
2022/05/06 04:27:36;;;;;;;;;;;;;;;21.68;40.80;96011.03;10356302;28;1906;-54
2022/05/06 04:32:37;;;;;;;;;;;;;;;21.67;40.81;96024.50;10334587;28;1802;-52
2022/05/06 04:37:37;;;;;;;;;;;;;;;21.68;40.77;96023.41;10334366;28;1869;-55
2022/05/06 04:42:37;;;;;;;;;;;;;;;21.67;40.75;96027.13;10333803;28;1892;-55
2022/05/06 04:47:38;;;;;;;;;;;;;;;21.67;40.91;96017.38;10340260;28;1989;-52
2022/05/06 04:52:38;;;;;;;;;;;;;;;21.66;40.71;96013.16;10338362;28;1861;-52
2022/05/06 04:57:38;;;;;;;;;;;;;;;21.65;40.80;96023.97;10335237;28;2138;-53
2022/05/06 05:02:39;;;;;;;;;;;;;;;21.63;40.90;96026.09;10335110;28;1782;-56
2022/05/06 05:07:40;;;;;;;;;;;;;;;21.62;40.76;96014.75;10350451;28;1979;-56
2022/05/06 05:12:41;;;;;;;;;;;;;;;21.64;40.83;96023.19;10345915;28;1805;-52
2022/05/06 05:17:45;;;;;;;;;;;;;;;21.66;40.71;96036.88;10355232;28;1892;-54
2022/05/06 05:22:46;;;;;;;;;;;;;;;21.65;40.85;96030.06;10347983;28;1832;-55
2022/05/06 05:27:46;;;;;;;;;;;;;;;21.65;40.88;96039.81;10341010;28;1975;-55
2022/05/06 05:32:46;;;;;;;;;;;;;;;21.65;40.81;96034.53;10335343;28;1801;-55
2022/05/06 05:37:46;;;;;;;;;;;;;;;21.68;40.71;96047.16;10331962;28;1881;-52
2022/05/06 05:42:47;;;;;;;;;;;;;;;21.66;40.71;96036.88;10344340;28;1774;-52
2022/05/06 05:53:26;;;;;;;;;;;;;;;21.65;40.56;96034.53;10206069;29;1829;-53
2022/05/06 05:58:27;;;;;;;;;;;;;;;21.66;40.68;96033.47;10312799;28;1853;-55
2022/05/06 06:03:28;;;;;;;;;;;;;;;21.63;40.94;96036.66;10341304;28;1965;-52
2022/05/06 06:08:28;;;;;;;;;;;;;;;21.63;40.83;96034.81;10370371;28;1786;-53
2022/05/06 06:13:30;;;;;;;;;;;;;;;21.65;40.71;96040.59;10362196;28;1809;-55
2022/05/06 06:18:30;;;;;;;;;;;;;;;21.66;40.54;96038.72;10375409;28;1851;-53
2022/05/06 06:23:31;;;;;;;;;;;;;;;21.67;40.81;96038.47;10371697;28;1898;-55
2022/05/06 06:28:31;;;;;;;;;;;;;;;21.70;40.83;96037.94;10371707;28;1796;-54
2022/05/06 06:33:37;;;;;;;;;;;;;;;21.71;40.75;96036.09;10365081;28;1912;-58
2022/05/06 06:38:38;;;;;;;;;;;;;;;21.71;40.82;96044.00;10348693;28;1834;-55
2022/05/06 06:43:39;;;;;;;;;;;;;;;21.71;40.91;96044.00;10367580;28;1945;-55
2022/05/06 06:48:40;;;;;;;;;;;;;;;21.90;40.63;96042.31;10342747;28;1922;-56
2022/05/06 06:53:40;;;;;;;;;;;;;;;22.02;40.32;96045.41;10365356;28;1801;-54
2022/05/06 06:58:41;;;;;;;;;;;;;;;22.15;40.03;96038.72;10353746;28;1823;-57
2022/05/06 07:03:41;;;;;;;;;;;;;;;22.26;39.90;96046.25;10348985;28;1913;-57
2022/05/06 07:14:02;;;;;;;;;;;;;;;22.51;39.47;96046.03;10352546;28;2044;-56
2022/05/06 07:19:02;;;;;;;;;;;;;;;22.60;39.10;96059.47;10330771;28;2011;-57
2022/05/06 07:24:03;;;;;;;;;;;;;;;22.67;38.64;96054.63;10333103;28;1914;-59
2022/05/06 07:29:03;;;;;;;;;;;;;;;22.52;39.36;96054.78;10361448;28;1902;-55
2022/05/06 07:34:04;;;;;;;;;;;;;;;22.48;39.42;96059.78;10341530;28;1807;-56
2022/05/06 07:39:05;;;;;;;;;;;;;;;22.57;38.08;96058.13;10350012;28;1843;-56
2022/05/06 07:44:05;;;;;;;;;;;;;;;22.65;38.76;96065.50;10348696;28;1906;-58
2022/05/06 07:49:06;;;;;;;;;;;;;;;22.73;38.24;96055.41;10332799;28;1832;-56
2022/05/06 07:54:06;;;;;;;;;;;;;;;22.80;38.29;96059.28;10355750;28;1799;-59
2022/05/06 07:59:06;;;;;;;;;;;;;;;22.88;38.22;96071.06;10340698;28;1876;-56
2022/05/06 08:09:26;;;;;;;;;;;;;;;22.99;37.99;96077.84;10337757;28;1801;-56
2022/05/06 08:14:26;;;;;;;;;;;;;;;23.01;38.37;96079.16;10338780;28;1745;-53
2022/05/06 08:19:28;;;;;;;;;;;;;;;23.09;38.21;96085.66;10337187;28;1765;-57
2022/05/06 08:24:28;;;;;;;;;;;;;;;23.12;37.93;96075.31;10334534;28;1906;-58
2022/05/06 08:29:29;;;;;;;;;;;;;;;23.16;38.05;96081.59;10333013;28;1776;-57
2022/05/06 08:34:30;;;;;;;;;;;;;;;23.19;37.62;96082.91;10363416;28;1879;-56
2022/05/06 08:39:31;;;;;;;;;;;;;;;23.22;37.74;96079.72;10362734;28;1793;-54
2022/05/06 08:55:09;;;;;;;;;;;;;;;23.26;37.36;96096.59;10352607;28;1824;-56
2022/05/06 09:00:09;;;;;;;;;;;;;;;23.28;37.43;96094.44;10341357;28;1792;-58
2022/05/06 09:05:13;;;;;;;;;;;;;;;23.28;37.51;96099.75;10352632;28;1910;-57
2022/05/06 09:10:14;;;;;;;;;;;;;;;23.27;37.24;96100.78;10334387;28;1784;-58
2022/05/06 09:20:34;;;;;;;;;;;;;;;23.30;38.21;96108.19;10335645;28;1808;-59
2022/05/06 09:25:35;;;;;;;;;;;;;;;23.32;37.70;96112.16;10323402;28;1906;-58
2022/05/06 09:30:36;;;;;;;;;;;;;;;23.32;37.79;96116.66;10339541;28;1844;-55
2022/05/06 09:35:37;;;;;;;;;;;;;;;23.28;37.84;96118.25;10353614;28;1939;-54
2022/05/06 09:40:37;;;;;;;;;;;;;;;23.25;37.40;96116.94;10326298;28;1849;-56
2022/05/06 09:45:42;;;;;;;;;;;;;;;23.23;37.45;96118.28;10331803;28;1918;-55
2022/05/06 09:50:44;;;;;;;;;;;;;;;23.25;38.08;96121.44;10348503;28;1875;-53
2022/05/06 09:55:47;;;;;;;;;;;;;;;23.26;38.13;96123.03;10342383;28;1761;-53
2022/05/06 10:00:47;;;;;;;;;;;;;;;23.25;38.42;96127.53;10327415;28;1764;-59
2022/05/06 10:05:48;;;;;;;;;;;;;;;23.27;38.71;96130.69;10332233;28;1899;-56
2022/05/06 10:10:54;;;;;;;;;;;;;;;23.27;38.47;96119.31;10329253;28;1768;-57
2022/05/06 10:15:54;;;;;;;;;;;;;;;23.27;38.66;96127.25;10329429;28;1852;-59
2022/05/06 10:20:56;;;;;;;;;;;;;;;23.26;38.68;96134.41;10346262;28;1793;-58
2022/05/06 10:25:57;;;;;;;;;;;;;;;23.27;37.99;96133.34;10330775;28;1906;-57
2022/05/06 10:36:39;;;;;;;;;;;;;;;23.28;38.29;96136.78;10347965;28;1848;-57
2022/05/06 10:41:46;;;;;;;;;;;;;;;23.27;38.23;96122.75;10336629;28;1776;-57
2022/05/06 10:46:47;;;;;;;;;;;;;;;23.29;38.49;96127.75;10322182;28;2256;-56
2022/05/06 10:51:48;;;;;;;;;;;;;;;23.28;38.36;96120.91;10333960;28;1706;-58
2022/05/06 10:56:48;;;;;;;;;;;;;;;23.28;38.18;96126.97;10342418;28;1851;-55
2022/05/06 11:01:49;;;;;;;;;;;;;;;23.22;37.21;96125.47;10336986;28;1808;-53
2022/05/06 11:06:49;;;;;;;;;;;;;;;23.22;38.15;96117.53;10326820;28;1970;-55
2022/05/06 11:11:49;;;;;;;;;;;;;;;23.20;38.61;96124.16;10354491;28;1845;-57
2022/05/06 11:16:50;;;;;;;;;;;;;;;23.24;38.22;96128.63;10370144;28;1832;-56
2022/05/06 11:22:04;;;;;;;;;;;;;;;23.22;38.65;96117.53;10350773;28;1776;-58
2022/05/06 11:27:18;;;;;;;;;;;;;;;23.12;38.70;96116.84;10359971;28;1934;-58
2022/05/06 11:32:19;;;;;;;;;;;;;;;23.02;38.51;96123.00;10354389;28;1865;-57
2022/05/06 11:37:22;;;;;;;;;;;;;;;22.92;38.40;96120.47;10356472;28;1895;-57
2022/05/06 11:42:23;;;;;;;;;;;;;;;22.81;38.44;96126.13;10361577;28;1678;-55
2022/05/06 11:47:27;;;;;;;;;;;;;;;22.71;39.00;96116.44;10334793;28;1914;-52
2022/05/06 11:52:28;;;;;;;;;;;;;;;22.63;38.87;96117.03;10331155;28;1860;-55
2022/05/06 11:57:28;;;;;;;;;;;;;;;22.57;39.16;96105.69;10339728;28;1856;-56
2022/05/06 12:02:28;;;;;;;;;;;;;;;22.52;39.35;96111.00;10319936;28;1848;-55
2022/05/06 12:07:39;;;;;;;;;;;;;;;22.47;39.56;96105.00;10335391;28;2001;-54
2022/05/06 12:12:58;;;;;;;;;;;;;;;22.42;39.42;96111.09;10352586;28;1804;-54
2022/05/06 12:18:12;;;;;;;;;;;;;;;22.39;39.39;96113.50;10335999;28;1867;-57
2022/05/06 12:23:12;;;;;;;;;;;;;;;22.33;39.75;96118.06;10340070;28;1824;-56
2022/05/06 12:28:15;;;;;;;;;;;;;;;22.30;39.47;96113.31;10337698;28;1967;-59
2022/05/06 12:33:16;;;;;;;;;;;;;;;22.27;39.76;96121.78;10340003;28;1919;-56
2022/05/06 12:38:16;;;;;;;;;;;;;;;22.24;39.52;96121.53;10360670;28;1788;-56
2022/05/06 12:43:16;;;;;;;;;;;;;;;22.20;39.67;96120.50;10333422;28;2190;-59
2022/05/06 12:53:40;;;;;;;;;;;;;;;22.14;40.15;96127.69;10350105;28;1804;-57
2022/05/06 12:58:40;;;;;;;;;;;;;;;22.13;40.16;96130.59;10337578;28;1877;-56
2022/05/06 13:03:43;;;;;;;;;;;;;;;22.12;40.27;96129.00;10345830;28;1910;-55
2022/05/06 13:08:43;;;;;;;;;;;;;;;22.07;39.94;96116.63;10335960;28;1898;-55
2022/05/06 13:13:43;;;;;;;;;;;;;;;22.08;39.94;96112.94;10332173;28;1824;-55
2022/05/06 13:18:45;;;;;;;;;;;;;;;22.06;40.30;96120.34;10352279;28;1804;-54
2022/05/06 13:23:46;;;;;;;;;;;;;;;22.06;40.50;96120.34;10335698;28;1906;-59
2022/05/06 13:28:46;;;;;;;;;;;;;;;22.07;40.52;96121.13;10338556;28;1781;-57
2022/05/06 13:33:48;;;;;;;;;;;;;;;22.07;40.54;96119.28;10335413;28;1953;-54
2022/05/06 13:38:48;;;;;;;;;;;;;;;22.09;40.85;96119.03;10332440;28;1890;-54
2022/05/06 13:43:48;;;;;;;;;;;;;;;22.10;40.53;96110.81;10331753;28;1979;-55
2022/05/06 13:48:49;;;;;;;;;;;;;;;22.12;40.59;96105.25;10351784;28;1846;-56
2022/05/06 13:53:49;;;;;;;;;;;;;;;22.13;40.80;96104.22;10334327;28;1871;-59
2022/05/06 13:59:05;;;;;;;;;;;;;;;22.16;40.59;96111.56;10344329;28;1804;-56
2022/05/06 14:04:05;;;;;;;;;;;;;;;22.17;40.39;96099.94;10336175;28;1910;-57
2022/05/06 14:09:05;;;;;;;;;;;;;;;22.19;40.42;96095.97;10344190;28;1710;-57
2022/05/06 14:14:06;;;;;;;;;;;;;;;22.21;40.27;96096.50;10355002;28;1815;-60
2022/05/06 14:19:08;;;;;;;;;;;;;;;22.24;40.39;96097.78;10346062;28;1858;-58
2022/05/06 14:24:09;;;;;;;;;;;;;;;22.26;40.31;96093.78;10337845;28;1914;-58
2022/05/06 14:29:11;;;;;;;;;;;;;;;22.27;40.47;96095.38;10355586;28;2295;-57
2022/05/06 14:34:12;;;;;;;;;;;;;;;22.28;40.17;96098.78;10362470;28;1895;-55
2022/05/06 14:39:12;;;;;;;;;;;;;;;22.24;40.68;96090.66;10358112;28;1909;-59
2022/05/06 14:44:13;;;;;;;;;;;;;;;22.24;40.83;96097.78;10329192;28;1910;-59
2022/05/06 14:49:14;;;;;;;;;;;;;;;22.21;40.77;96088.56;10356464;28;1984;-59
2022/05/06 14:54:14;;;;;;;;;;;;;;;22.20;40.65;96084.34;10341158;28;1868;-60
2022/05/06 14:59:14;;;;;;;;;;;;;;;22.20;40.64;96089.63;10335479;28;2028;-58
2022/05/06 15:04:16;;;;;;;;;;;;;;;22.18;40.43;96090.94;10328140;28;1922;-58
2022/05/06 15:09:21;;;;;;;;;;;;;;;22.17;40.64;96089.38;10335061;28;2024;-60
2022/05/06 15:14:23;;;;;;;;;;;;;;;22.14;40.68;96095.19;10354549;28;1808;-56
2022/05/06 15:19:24;;;;;;;;;;;;;;;22.13;40.68;96094.44;10339035;28;1805;-58
2022/05/06 15:24:26;;;;;;;;;;;;;;;22.13;40.66;96085.72;10360499;28;1906;-61
2022/05/06 15:29:28;;;;;;;;;;;;;;;22.15;40.79;96084.38;10353850;28;1820;-59
2022/05/06 15:34:29;;;;;;;;;;;;;;;22.15;40.90;96096.78;10347382;28;1832;-60
2022/05/06 15:39:30;;;;;;;;;;;;;;;22.15;40.60;96089.66;10346575;28;1926;-58
2022/05/06 15:44:31;;;;;;;;;;;;;;;22.12;40.91;96103.41;10374174;28;1904;-57
2022/05/06 15:49:32;;;;;;;;;;;;;;;22.12;40.63;96097.34;10374431;28;1851;-59
2022/05/06 15:54:32;;;;;;;;;;;;;;;22.13;40.74;96097.06;10375801;28;1812;-57
2022/05/06 15:59:33;;;;;;;;;;;;;;;22.12;40.76;96094.69;10368698;28;1800;-59
2022/05/06 16:04:33;;;;;;;;;;;;;;;22.23;40.79;96099.66;10354983;28;1959;-59
2022/05/06 16:09:33;;;;;;;;;;;;;;;22.43;41.46;96099.47;10340004;28;1820;-58
2022/05/06 16:19:53;;;;;;;;;;;;;;;22.70;40.95;96087.66;10349469;28;1796;-56
2022/05/06 16:24:54;;;;;;;;;;;;;;;22.81;40.64;96091.78;10335576;28;1910;-57
2022/05/06 16:29:54;;;;;;;;;;;;;;;22.87;40.95;96088.81;10340308;28;1866;-58
2022/05/06 16:40:15;;;;;;;;;;;;;;;22.99;39.94;96094.50;10349103;28;1777;-58
2022/05/06 16:45:15;;;;;;;;;;;;;;;23.13;40.38;96091.97;10333854;28;1902;-57
2022/05/06 16:50:16;;;;;;;;;;;;;;;23.08;39.38;96092.03;10336492;28;1800;-59
2022/05/06 16:55:17;;;;;;;;;;;;;;;23.09;39.48;96089.09;10353464;28;1741;-54
2022/05/06 17:00:18;;;;;;;;;;;;;;;23.06;39.43;96094.19;10343592;28;1801;-56
2022/05/06 17:05:18;;;;;;;;;;;;;;;23.06;39.62;96081.72;10352182;28;1975;-52
2022/05/06 17:10:19;;;;;;;;;;;;;;;23.03;39.58;96086.78;10358478;28;1792;-53
2022/05/06 17:15:19;;;;;;;;;;;;;;;23.02;39.48;96085.22;10340613;28;1844;-53
2022/05/06 17:20:19;;;;;;;;;;;;;;;23.03;39.37;96082.28;10354505;28;1808;-56
2022/05/06 17:25:21;;;;;;;;;;;;;;;23.04;39.65;96088.38;10351762;28;2000;-62
2022/05/06 17:30:21;;;;;;;;;;;;;;;23.03;39.54;96084.16;10353998;28;1810;-59
2022/05/06 17:35:22;;;;;;;;;;;;;;;23.04;39.72;96097.06;10353435;28;1804;-54
2022/05/06 17:40:22;;;;;;;;;;;;;;;23.04;39.76;96096.31;10347197;28;2007;-48
2022/05/06 17:45:23;;;;;;;;;;;;;;;23.00;39.59;96103.22;10352088;28;1923;-55
2022/05/06 17:50:25;;;;;;;;;;;;;;;22.99;39.80;96096.34;10337147;28;1833;-52
2022/05/06 17:55:25;;;;;;;;;;;;;;;22.98;39.47;96100.84;10348002;28;1832;-50
2022/05/06 18:05:47;;;;;;;;;;;;;;;23.01;39.67;96107.44;10343372;28;1886;-53
2022/05/06 18:10:47;;;;;;;;;;;;;;;22.97;39.99;96109.84;10347317;28;1781;-54
2022/05/06 18:15:47;;;;;;;;;;;;;;;22.90;39.46;96111.25;10337502;28;1883;-55
2022/05/06 18:20:48;;;;;;;;;;;;;;;22.86;40.07;96112.88;10367896;28;1769;-58
2022/05/06 18:25:49;;;;;;;;;;;;;;;22.84;40.41;96120.28;10325078;28;1946;-60
2022/05/06 18:30:49;;;;;;;;;;;;;;;22.78;40.37;96118.75;10345456;28;2029;-58
2022/05/06 18:35:56;;;;;;;;;;;;;;;22.74;40.83;96121.19;10326542;28;1933;-63
2022/05/06 18:40:57;;;;;;;;;;;;;;;22.63;40.25;96123.13;10345198;28;1821;-61
2022/05/06 18:45:57;;;;;;;;;;;;;;;22.61;40.49;96119.97;10341057;28;1906;-51
2022/05/06 18:50:58;;;;;;;;;;;;;;;22.57;40.63;96126.84;10349803;28;1879;-50
2022/05/06 18:55:58;;;;;;;;;;;;;;;22.53;40.31;96123.16;10346448;28;1808;-55
2022/05/06 19:01:01;;;;;;;;;;;;;;;22.48;40.15;96128.47;10358585;28;1899;-51
2022/05/06 19:06:01;;;;;;;;;;;;;;;22.46;40.42;96137.78;10350716;28;1973;-53
2022/05/06 19:11:03;;;;;;;;;;;;;;;22.43;40.42;96144.38;10353845;28;1959;-56
2022/05/06 19:16:03;;;;;;;;;;;;;;;22.41;40.19;96141.22;10334774;28;1702;-53
2022/05/06 19:26:23;;;;;;;;;;;;;;;22.36;40.34;96149.19;10334063;28;2011;-53
2022/05/06 19:31:23;;;;;;;;;;;;;;;22.35;40.41;96152.09;10366740;28;1825;-50
2022/05/06 19:36:24;;;;;;;;;;;;;;;22.31;40.86;96149.22;10345181;28;1844;-53
2022/05/06 19:41:24;;;;;;;;;;;;;;;22.30;40.91;96160.03;10360701;28;1804;-53
2022/05/06 19:46:25;;;;;;;;;;;;;;;22.28;41.25;96149.75;10358122;28;2320;-50
2022/05/06 19:56:45;;;;;;;;;;;;;;;22.26;41.16;96151.88;10363189;28;1791;-50
2022/05/06 20:01:46;;;;;;;;;;;;;;;22.23;41.39;96162.22;10356160;28;1828;-50
2022/05/06 20:06:47;;;;;;;;;;;;;;;22.20;41.65;96158.28;10342930;28;2692;-51
2022/05/06 20:11:47;;;;;;;;;;;;;;;22.20;41.83;96160.91;10358310;28;1883;-49
2022/05/06 20:16:48;;;;;;;;;;;;;;;22.17;41.87;96163.31;10345879;28;1869;-52
2022/05/06 20:21:48;;;;;;;;;;;;;;;22.17;42.19;96158.03;10377649;28;1827;-49
2022/05/06 20:26:49;;;;;;;;;;;;;;;22.16;42.39;96159.09;10336831;28;2374;-50
2022/05/06 20:31:52;;;;;;;;;;;;;;;22.13;42.44;96162.28;10349117;28;1823;-47
2022/05/06 20:36:52;;;;;;;;;;;;;;;22.14;42.58;96163.84;10353235;28;1733;-51
2022/05/06 20:41:53;;;;;;;;;;;;;;;22.09;42.26;96158.63;10348426;28;1788;-50
2022/05/06 20:46:53;;;;;;;;;;;;;;;22.08;42.20;96165.75;10356910;28;1970;-53
2022/05/06 20:51:54;;;;;;;;;;;;;;;22.07;42.40;96169.44;10341862;28;1965;-53
2022/05/06 21:02:14;;;;;;;;;;;;;;;22.02;41.92;96161.56;10334320;28;1880;-55
2022/05/06 21:07:14;;;;;;;;;;;;;;;22.02;41.92;96155.47;10352327;28;1902;-54
2022/05/06 21:17:34;;;;;;;;;;;;;;;21.99;42.18;96145.47;10318280;28;1808;-52
2022/05/06 21:22:35;;;;;;;;;;;;;;;21.99;42.25;96150.75;10352629;28;1887;-53
2022/05/06 21:27:36;;;;;;;;;;;;;;;21.98;42.41;96155.25;10350780;28;1953;-54
2022/05/06 21:32:37;;;;;;;;;;;;;;;21.99;42.34;96145.47;10338346;28;1765;-54
2022/05/06 21:37:37;;;;;;;;;;;;;;;21.99;42.09;96151.53;10331675;28;1876;-51
2022/05/06 21:42:38;;;;;;;;;;;;;;;21.99;42.04;96150.75;10342445;28;1823;-54
2022/05/06 21:47:38;;;;;;;;;;;;;;;21.98;42.33;96154.44;10330745;28;1902;-49
2022/05/06 21:52:39;;;;;;;;;;;;;;;22.00;41.65;96154.97;10318057;28;1868;-50
2022/05/06 21:57:39;;;;;;;;;;;;;;;22.00;41.62;96153.13;10354100;28;2173;-49
2022/05/06 22:02:40;;;;;;;;;;;;;;;22.00;40.96;96145.19;10352788;28;1785;-53
2022/05/06 22:07:40;;;;;;;;;;;;;;;22.01;41.69;96144.13;10352964;28;1910;-50
2022/05/06 22:12:41;;;;;;;;;;;;;;;22.01;41.60;96144.13;10331785;28;1823;-51
2022/05/06 22:17:48;;;;;;;;;;;;;;;22.01;41.38;96144.13;10350920;28;1773;-51
2022/05/06 22:22:50;;;;;;;;;;;;;;;22.00;41.44;96141.75;10347003;28;1793;-51
2022/05/06 22:27:50;;;;;;;;;;;;;;;22.00;41.48;96137.28;10340871;28;2195;-48
2022/05/06 22:38:09;;;;;;;;;;;;;;;22.02;41.21;96134.34;10353980;28;1837;-50
2022/05/06 22:48:38;;;;;;;;;;;;;;;22.00;41.41;96133.84;10336545;28;1950;-53
2022/05/06 22:53:38;;;;;;;;;;;;;;;22.03;41.63;96135.94;10346753;28;2193;-53
2022/05/06 22:58:39;;;;;;;;;;;;;;;22.03;41.66;96134.06;10342464;28;1810;-52
2022/05/06 23:03:39;;;;;;;;;;;;;;;22.03;41.64;96135.94;10338114;28;1982;-51
2022/05/06 23:08:40;;;;;;;;;;;;;;;22.03;42.00;96130.66;10351832;28;1914;-53
2022/05/06 23:13:41;;;;;;;;;;;;;;;22.00;41.95;96134.63;10359323;28;1797;-51
2022/05/06 23:18:41;;;;;;;;;;;;;;;21.99;42.16;96127.75;10358460;28;1741;-48
2022/05/06 23:23:41;;;;;;;;;;;;;;;22.00;41.94;96126.72;10354660;28;1972;-49
2022/05/06 23:28:42;;;;;;;;;;;;;;;21.98;41.95;96123.56;10360133;28;1904;-50
2022/05/06 23:33:42;;;;;;;;;;;;;;;21.98;41.94;96122.78;10354457;28;1854;-50
2022/05/06 23:38:43;;;;;;;;;;;;;;;21.98;41.74;96120.13;10356453;28;1860;-53
2022/05/06 23:43:43;;;;;;;;;;;;;;;21.96;41.72;96123.06;10339475;28;1906;-50
2022/05/06 23:48:43;;;;;;;;;;;;;;;21.96;41.74;96120.41;10339800;28;1869;-53
2022/05/06 23:53:44;;;;;;;;;;;;;;;21.95;41.71;96120.69;10357914;28;1894;-48
2022/05/06 23:58:44;;;;;;;;;;;;;;;21.96;41.56;96111.69;10353434;28;1828;-52
